createdAt,value
2018-04-06T00:00:49.914Z,0.90
2018-04-06T00:03:17.384Z,0.90
2018-04-06T00:05:45.638Z,0.80
2018-04-06T00:08:13.110Z,0.80
2018-04-06T00:10:41.362Z,0.70
2018-04-06T00:13:10.346Z,0.70
2018-04-06T00:15:37.842Z,0.70
2018-04-06T00:18:06.073Z,0.70
2018-04-06T00:20:33.563Z,0.70
2018-04-06T00:23:01.807Z,0.70
2018-04-06T00:25:29.274Z,0.60
2018-04-06T00:27:56.766Z,0.70
2018-04-06T00:30:25.061Z,0.80
2018-04-06T00:32:52.547Z,0.70
2018-04-06T00:35:20.019Z,0.80
2018-04-06T00:37:47.516Z,0.80
2018-04-06T00:40:15.090Z,0.90
2018-04-06T00:42:42.579Z,0.90
2018-04-06T00:45:10.054Z,0.90
2018-04-06T00:47:37.534Z,0.90
2018-04-06T00:50:05.770Z,0.90
2018-04-06T00:52:33.254Z,0.90
2018-04-06T00:55:01.497Z,0.90
2018-04-06T00:57:28.988Z,0.90
2018-04-06T00:59:57.218Z,1.20
2018-04-06T01:02:24.748Z,1.20
2018-04-06T01:04:52.214Z,1.40
2018-04-06T01:07:19.678Z,1.50
2018-04-06T01:09:47.157Z,1.60
2018-04-06T01:12:14.651Z,1.40
2018-04-06T01:14:42.908Z,1.20
2018-04-06T01:17:11.146Z,1.10
2018-04-06T01:19:38.681Z,1.00
2018-04-06T01:22:06.138Z,1.00
2018-04-06T01:24:33.626Z,0.90
2018-04-06T01:27:01.082Z,1.00
2018-04-06T01:29:28.562Z,0.90
2018-04-06T01:31:56.026Z,0.90
2018-04-06T01:34:24.278Z,0.90
2018-04-06T01:36:51.742Z,0.80
2018-04-06T01:39:19.226Z,0.90
2018-04-06T01:41:47.454Z,1.00
2018-04-06T01:44:14.956Z,1.00
2018-04-06T01:46:42.426Z,1.10
2018-04-06T01:49:09.893Z,1.10
2018-04-06T01:51:37.378Z,1.00
2018-04-06T01:54:04.859Z,1.00
2018-04-06T01:56:33.107Z,1.00
2018-04-06T01:59:00.599Z,1.00
2018-04-06T02:01:28.850Z,0.90
2018-04-06T02:03:56.326Z,0.90
2018-04-06T02:06:24.578Z,0.80
2018-04-06T02:08:52.050Z,0.80
2018-04-06T02:11:19.539Z,0.90
2018-04-06T02:13:47.001Z,0.80
2018-04-06T02:16:14.504Z,0.90
2018-04-06T02:18:43.482Z,0.90
2018-04-06T02:21:10.970Z,0.80
2018-04-06T02:23:39.202Z,1.10
2018-04-06T02:26:06.695Z,1.00
2018-04-06T02:28:34.930Z,1.00
2018-04-06T02:31:02.396Z,1.00
2018-04-06T02:33:29.886Z,1.00
2018-04-06T02:35:58.115Z,0.80
2018-04-06T02:38:25.618Z,0.80
2018-04-06T02:40:53.854Z,0.90
2018-04-06T02:43:21.334Z,0.90
2018-04-06T02:45:48.798Z,0.90
2018-04-06T02:48:17.056Z,0.90
2018-04-06T02:50:44.520Z,0.90
2018-04-06T02:53:12.003Z,0.90
2018-04-06T02:55:39.483Z,0.80
2018-04-06T02:58:06.970Z,0.70
2018-04-06T03:00:34.450Z,0.80
2018-04-06T03:03:02.745Z,0.60
2018-04-06T03:05:30.190Z,0.50
2018-04-06T03:07:58.435Z,0.40
2018-04-06T03:10:25.898Z,0.40
2018-04-06T03:12:53.522Z,0.40
2018-04-06T03:15:21.030Z,0.40
2018-04-06T03:17:49.290Z,0.30
2018-04-06T03:20:16.758Z,0.20
2018-04-06T03:22:44.222Z,0.20
2018-04-06T03:25:12.531Z,0.20
2018-04-06T03:27:40.002Z,0.10
2018-04-06T03:30:07.545Z,0.10
2018-04-06T03:32:35.022Z,0.10
2018-04-06T03:35:02.507Z,0.10
2018-04-06T03:37:29.969Z,0.10
2018-04-06T03:39:58.247Z,0.20
2018-04-06T03:42:26.481Z,0.10
2018-04-06T03:44:53.970Z,0.10
2018-04-06T03:47:21.446Z,0.00
2018-04-06T03:49:49.694Z,0.20
2018-04-06T03:52:17.157Z,0.20
2018-04-06T03:54:44.642Z,0.30
2018-04-06T03:57:12.106Z,0.30
2018-04-06T03:59:39.586Z,0.30
2018-04-06T04:02:07.055Z,0.10
2018-04-06T04:04:34.525Z,0.10
2018-04-06T04:07:02.006Z,0.10
2018-04-06T04:09:30.242Z,0.30
2018-04-06T04:11:57.781Z,0.30
2018-04-06T04:14:25.215Z,0.50
2018-04-06T04:16:52.698Z,0.60
2018-04-06T04:19:20.163Z,0.50
2018-04-06T04:21:47.642Z,0.40
2018-04-06T04:24:15.104Z,0.50
2018-04-06T04:26:42.604Z,-1.90
2018-04-06T04:29:10.065Z,0.30
2018-04-06T04:31:37.554Z,0.10
2018-04-06T04:34:05.018Z,0.00
2018-04-06T04:36:32.502Z,0.10
2018-04-06T04:38:59.970Z,0.10
2018-04-06T04:41:27.456Z,0.00
2018-04-06T04:43:54.922Z,0.10
2018-04-06T04:46:22.395Z,0.20
2018-04-06T04:48:50.638Z,0.20
2018-04-06T04:51:18.106Z,0.20
2018-04-06T04:53:45.595Z,0.20
2018-04-06T04:56:13.837Z,0.20
2018-04-06T04:58:41.326Z,0.20
2018-04-06T05:01:09.558Z,0.40
2018-04-06T05:03:37.039Z,0.40
2018-04-06T05:06:04.502Z,0.40
2018-04-06T05:08:31.986Z,0.40
2018-04-06T05:11:00.218Z,0.40
2018-04-06T05:13:27.682Z,0.30
2018-04-06T05:15:55.930Z,0.50
2018-04-06T05:18:23.401Z,0.40
2018-04-06T05:20:50.883Z,0.50
2018-04-06T05:23:19.123Z,0.70
2018-04-06T05:25:46.831Z,0.70
2018-04-06T05:28:15.065Z,0.80
2018-04-06T05:30:42.533Z,0.80
2018-04-06T05:33:10.027Z,0.90
2018-04-06T05:35:37.490Z,1.00
2018-04-06T05:38:04.981Z,1.10
2018-04-06T05:40:32.442Z,1.10
2018-04-06T05:42:59.958Z,1.20
2018-04-06T05:45:27.422Z,1.20
2018-04-06T05:47:54.887Z,1.30
2018-04-06T05:50:23.139Z,1.50
2018-04-06T05:52:50.606Z,1.50
2018-04-06T05:55:18.862Z,1.80
2018-04-06T05:57:46.334Z,1.80
2018-04-06T06:00:13.818Z,1.80
2018-04-06T06:02:41.290Z,1.90
2018-04-06T06:05:08.802Z,2.10
2018-04-06T06:07:37.041Z,2.20
2018-04-06T06:10:04.538Z,2.20
2018-04-06T06:12:33.012Z,2.20
2018-04-06T06:15:00.483Z,2.30
2018-04-06T06:17:27.966Z,2.50
2018-04-06T06:19:55.443Z,2.60
2018-04-06T06:22:23.748Z,2.70
2018-04-06T06:24:51.235Z,2.70
2018-04-06T06:27:18.850Z,2.90
2018-04-06T06:29:46.328Z,3.00
2018-04-06T06:32:13.814Z,3.20
2018-04-06T06:34:42.056Z,3.50
2018-04-06T06:37:09.548Z,3.50
2018-04-06T06:39:37.788Z,3.80
2018-04-06T06:42:05.286Z,3.80
2018-04-06T06:44:33.531Z,4.00
2018-04-06T06:47:01.022Z,4.00
2018-04-06T06:49:28.562Z,4.10
2018-04-06T06:51:56.794Z,4.30
2018-04-06T06:54:24.310Z,4.30
2018-04-06T06:56:52.533Z,4.60
2018-04-06T06:59:20.017Z,4.60
2018-04-06T07:01:47.487Z,4.70
2018-04-06T07:04:15.735Z,5.50
2018-04-06T07:06:43.222Z,5.50
2018-04-06T07:09:11.474Z,8.60
2018-04-06T07:11:38.946Z,8.60
2018-04-06T07:14:07.203Z,10.20
2018-04-06T07:16:34.685Z,10.20
2018-04-06T07:19:02.923Z,11.10
2018-04-06T07:21:30.415Z,11.10
2018-04-06T07:23:58.661Z,11.10
2018-04-06T07:26:26.162Z,11.10
2018-04-06T07:28:53.634Z,11.40
2018-04-06T07:31:21.098Z,11.70
2018-04-06T07:33:48.578Z,12.00
2018-04-06T07:36:16.092Z,11.70
2018-04-06T07:38:43.577Z,11.40
2018-04-06T07:41:11.047Z,11.60
2018-04-06T07:43:38.666Z,13.00
2018-04-06T07:46:06.155Z,12.80
2018-04-06T07:48:33.648Z,13.10
2018-04-06T07:51:01.906Z,13.80
2018-04-06T07:53:29.389Z,13.80
2018-04-06T07:55:56.854Z,13.10
2018-04-06T07:58:24.332Z,13.20
2018-04-06T08:00:51.822Z,13.60
2018-04-06T08:03:19.356Z,13.40
2018-04-06T08:05:46.791Z,13.80
2018-04-06T08:08:14.287Z,14.30
2018-04-06T08:10:42.523Z,14.50
2018-04-06T08:13:10.007Z,14.50
2018-04-06T08:15:37.490Z,15.00
2018-04-06T08:18:05.725Z,14.10
2018-04-06T08:20:33.210Z,14.10
2018-04-06T08:23:00.676Z,14.20
2018-04-06T08:25:28.176Z,14.30
2018-04-06T08:27:55.646Z,14.50
2018-04-06T08:30:23.112Z,14.60
2018-04-06T08:32:50.592Z,14.30
2018-04-06T08:35:18.054Z,13.90
2018-04-06T08:37:45.550Z,14.10
2018-04-06T08:40:13.034Z,14.00
2018-04-06T08:42:40.499Z,14.30
2018-04-06T08:45:07.985Z,14.80
2018-04-06T08:47:36.215Z,15.50
2018-04-06T08:50:03.718Z,15.50
2018-04-06T08:52:31.189Z,15.50
2018-04-06T08:54:58.662Z,15.20
2018-04-06T08:57:26.155Z,14.80
2018-04-06T08:59:53.637Z,14.80
2018-04-06T09:02:21.902Z,15.20
2018-04-06T09:04:49.364Z,15.20
2018-04-06T09:07:16.872Z,16.20
2018-04-06T09:09:44.338Z,15.90
2018-04-06T09:12:11.811Z,16.30
2018-04-06T09:14:39.308Z,17.60
2018-04-06T09:17:07.538Z,17.50
2018-04-06T09:19:35.018Z,17.40
2018-04-06T09:22:02.503Z,17.20
2018-04-06T09:24:29.974Z,17.10
2018-04-06T09:26:57.499Z,17.10
2018-04-06T09:29:25.733Z,16.00
2018-04-06T09:31:53.218Z,16.00
2018-04-06T09:34:20.691Z,16.10
2018-04-06T09:36:48.926Z,16.90
2018-04-06T09:39:16.408Z,16.90
2018-04-06T09:41:44.638Z,17.30
2018-04-06T09:44:12.122Z,17.30
2018-04-06T09:46:39.597Z,16.50
2018-04-06T09:49:07.932Z,16.50
2018-04-06T09:51:35.422Z,16.50
2018-04-06T09:54:02.890Z,16.40
2018-04-06T09:56:31.142Z,15.70
2018-04-06T09:58:58.623Z,15.70
2018-04-06T10:01:32.688Z,16.40
2018-04-06T10:04:00.155Z,16.40
2018-04-06T10:06:27.624Z,16.30
2018-04-06T10:08:55.114Z,16.10
2018-04-06T10:11:22.575Z,16.70
2018-04-06T10:13:50.419Z,16.40
2018-04-06T10:16:18.680Z,15.80
2018-04-06T10:18:46.917Z,15.70
2018-04-06T10:21:14.399Z,15.70
2018-04-06T10:23:41.888Z,15.90
2018-04-06T10:26:10.122Z,15.90
2018-04-06T10:28:37.610Z,15.90
2018-04-06T10:31:05.839Z,15.90
2018-04-06T10:33:33.306Z,15.90
2018-04-06T10:36:00.796Z,16.20
2018-04-06T10:38:29.026Z,15.80
2018-04-06T10:43:31.228Z,16.10
2018-04-06T10:45:58.711Z,16.10
2018-04-06T10:48:26.946Z,16.20
2018-04-06T10:50:54.412Z,16.20
2018-04-06T10:53:21.900Z,15.90
2018-04-06T10:55:49.372Z,16.00
2018-04-06T10:58:16.854Z,15.70
2018-04-06T11:00:44.330Z,15.70
2018-04-06T11:03:12.391Z,16.10
2018-04-06T11:05:39.854Z,16.50
2018-04-06T11:08:07.319Z,16.00
2018-04-06T11:10:34.798Z,16.20
2018-04-06T11:13:02.660Z,16.60
2018-04-06T11:15:33.298Z,15.80
2018-04-06T11:18:00.790Z,16.00
2018-04-06T11:20:28.258Z,15.80
2018-04-06T11:22:55.738Z,15.80
2018-04-06T11:25:23.198Z,16.00
2018-04-06T11:27:50.683Z,16.20
2018-04-06T11:30:18.910Z,16.60
2018-04-06T11:32:46.375Z,16.60
2018-04-06T11:35:13.862Z,16.20
2018-04-06T11:37:41.326Z,16.50
2018-04-06T11:40:09.585Z,16.40
2018-04-06T11:42:37.059Z,16.40
2018-04-06T11:45:05.290Z,16.30
2018-04-06T11:47:32.770Z,16.30
2018-04-06T11:50:00.254Z,16.20
2018-04-06T11:52:28.502Z,16.40
2018-04-06T11:54:55.971Z,16.30
2018-04-06T11:57:24.225Z,16.40
2018-04-06T11:59:51.709Z,16.40
2018-04-06T12:02:19.962Z,16.50
2018-04-06T12:04:47.426Z,16.40
2018-04-06T12:07:15.658Z,17.00
2018-04-06T12:09:43.200Z,17.00
2018-04-06T12:12:10.670Z,16.50
2018-04-06T12:14:38.242Z,16.50
2018-04-06T12:17:05.708Z,16.50
2018-04-06T12:19:33.188Z,16.20
2018-04-06T12:22:01.423Z,16.20
2018-04-06T12:24:28.902Z,16.20
2018-04-06T12:26:56.410Z,16.50
2018-04-06T12:29:23.871Z,16.80
2018-04-06T12:31:51.350Z,16.50
2018-04-06T12:34:18.824Z,16.60
2018-04-06T12:36:46.306Z,16.60
2018-04-06T12:39:14.535Z,16.80
2018-04-06T12:41:42.019Z,16.80
2018-04-06T12:44:09.558Z,17.10
2018-04-06T12:46:37.046Z,17.30
2018-04-06T12:49:05.282Z,17.50
2018-04-06T12:51:32.754Z,17.50
2018-04-06T12:54:00.235Z,17.80
2018-04-06T12:56:28.471Z,17.20
2018-04-06T12:58:55.963Z,17.10
2018-04-06T13:01:24.198Z,17.20
2018-04-06T13:03:51.724Z,17.20
2018-04-06T13:06:19.206Z,17.40
2018-04-06T13:08:46.738Z,17.40
2018-04-06T13:11:14.227Z,17.30
2018-04-06T13:13:41.686Z,17.30
2018-04-06T13:16:09.412Z,17.50
2018-04-06T13:18:36.914Z,17.70
2018-04-06T13:21:04.430Z,17.50
2018-04-06T13:23:31.915Z,17.80
2018-04-06T13:25:59.383Z,17.80
2018-04-06T13:28:26.866Z,18.30
2018-04-06T13:30:55.120Z,18.10
2018-04-06T13:33:22.598Z,18.00
2018-04-06T13:35:50.830Z,18.00
2018-04-06T13:38:18.311Z,18.00
2018-04-06T13:40:45.780Z,18.40
2018-04-06T13:43:14.052Z,18.20
2018-04-06T13:45:42.282Z,17.90
2018-04-06T13:48:09.746Z,17.90
2018-04-06T13:50:37.226Z,18.00
2018-04-06T13:53:04.697Z,17.90
2018-04-06T13:55:32.945Z,18.00
2018-04-06T13:58:00.413Z,18.00
2018-04-06T14:00:27.910Z,17.60
2018-04-06T14:02:55.396Z,17.60
2018-04-06T14:05:22.861Z,17.60
2018-04-06T14:07:50.355Z,17.90
2018-04-06T14:10:18.593Z,18.00
2018-04-06T14:12:46.099Z,18.00
2018-04-06T14:15:13.567Z,18.10
2018-04-06T14:17:41.030Z,17.50
2018-04-06T14:20:08.510Z,17.90
2018-04-06T14:22:35.991Z,18.10
2018-04-06T14:25:03.486Z,18.10
2018-04-06T14:27:30.975Z,18.00
2018-04-06T14:29:58.437Z,18.10
2018-04-06T14:32:25.941Z,18.30
2018-04-06T14:34:54.170Z,18.50
2018-04-06T14:37:21.658Z,18.40
2018-04-06T14:39:49.136Z,18.40
2018-04-06T14:42:16.705Z,18.20
2018-04-06T14:44:44.214Z,17.70
2018-04-06T14:47:11.682Z,17.80
2018-04-06T14:49:39.930Z,17.40
2018-04-06T14:52:07.394Z,17.40
2018-04-06T14:54:34.859Z,17.30
2018-04-06T14:57:02.370Z,17.30
2018-04-06T14:59:29.838Z,17.20
2018-04-06T15:01:57.342Z,17.20
2018-04-06T15:04:25.570Z,17.00
2018-04-06T15:06:53.033Z,17.00
2018-04-06T15:09:20.518Z,17.00
2018-04-06T15:11:48.762Z,16.90
2018-04-06T15:14:16.255Z,16.80
2018-04-06T15:16:44.563Z,16.80
2018-04-06T15:19:12.047Z,16.80
2018-04-06T15:21:39.533Z,16.80
2018-04-06T15:24:07.986Z,16.80
2018-04-06T15:26:35.478Z,16.80
2018-04-06T15:29:02.971Z,16.50
2018-04-06T15:31:30.443Z,16.40
2018-04-06T15:33:57.929Z,16.50
2018-04-06T15:36:25.403Z,16.60
2018-04-06T15:38:53.742Z,16.50
2018-04-06T15:41:21.205Z,16.50
2018-04-06T15:43:48.671Z,16.50
2018-04-06T15:46:16.179Z,16.30
2018-04-06T15:48:43.654Z,16.30
2018-04-06T15:51:11.142Z,16.30
2018-04-06T15:53:38.614Z,16.20
2018-04-06T15:56:06.074Z,16.30
2018-04-06T15:58:33.557Z,16.20
2018-04-06T16:01:01.862Z,16.20
2018-04-06T16:03:29.352Z,16.20
2018-04-06T16:05:56.818Z,16.30
2018-04-06T16:08:24.286Z,16.30
2018-04-06T16:10:51.790Z,16.30
2018-04-06T16:13:19.267Z,16.30
2018-04-06T16:15:46.763Z,16.10
2018-04-06T16:18:14.235Z,15.90
2018-04-06T16:20:42.466Z,15.50
2018-04-06T16:23:09.955Z,15.50
2018-04-06T16:25:38.183Z,15.30
2018-04-06T16:28:05.691Z,15.30
2018-04-06T16:30:33.154Z,15.30
2018-04-06T16:33:01.394Z,15.00
2018-04-06T16:35:28.874Z,15.00
2018-04-06T16:37:58.136Z,15.00
2018-04-06T16:40:25.621Z,14.90
2018-04-06T16:42:53.858Z,14.80
2018-04-06T16:45:21.341Z,14.80
2018-04-06T16:47:50.330Z,14.70
2018-04-06T16:50:17.796Z,14.70
2018-04-06T16:52:45.282Z,14.60
2018-04-06T16:55:12.810Z,14.60
2018-04-06T16:57:40.283Z,14.50
2018-04-06T17:00:08.534Z,14.40
2018-04-06T17:02:36.006Z,14.30
2018-04-06T17:05:04.555Z,14.30
2018-04-06T17:07:32.034Z,14.30
2018-04-06T17:09:59.502Z,14.30
2018-04-06T17:12:27.748Z,14.20
2018-04-06T17:14:55.216Z,14.20
2018-04-06T17:17:23.090Z,14.10
2018-04-06T17:19:52.075Z,14.00
2018-04-06T17:22:19.546Z,14.00
2018-04-06T17:24:47.804Z,13.90
2018-04-06T17:27:15.271Z,13.90
2018-04-06T17:29:43.520Z,13.70
2018-04-06T17:32:11.004Z,13.70
2018-04-06T17:34:38.458Z,13.70
2018-04-06T17:37:05.943Z,13.60
2018-04-06T17:39:33.411Z,13.50
2018-04-06T17:42:00.898Z,13.40
2018-04-06T17:44:28.375Z,13.40
2018-04-06T17:46:56.606Z,13.20
2018-04-06T17:49:24.150Z,13.20
2018-04-06T17:51:51.617Z,13.10
2018-04-06T17:54:19.225Z,13.00
2018-04-06T17:56:47.459Z,12.90
2018-04-06T17:59:14.919Z,12.90
2018-04-06T18:01:42.402Z,12.90
2018-04-06T18:04:09.878Z,12.80
2018-04-06T18:06:38.130Z,12.70
2018-04-06T18:09:05.601Z,12.60
2018-04-06T18:11:33.831Z,12.40
2018-04-06T18:14:01.315Z,12.40
2018-04-06T18:16:28.789Z,12.50
2018-04-06T18:18:57.047Z,12.30
2018-04-06T18:21:24.529Z,12.30
2018-04-06T18:23:52.007Z,12.20
2018-04-06T18:26:19.502Z,12.10
2018-04-06T18:28:46.970Z,12.20
2018-04-06T18:31:14.449Z,12.10
2018-04-06T18:33:42.703Z,12.00
2018-04-06T18:36:10.944Z,11.90
2018-04-06T18:38:38.417Z,11.90
2018-04-06T18:41:05.898Z,11.90
2018-04-06T18:43:34.135Z,11.70
2018-04-06T18:46:01.651Z,11.70
2018-04-06T18:48:29.249Z,11.80
2018-04-06T18:50:56.750Z,11.70
2018-04-06T18:53:24.218Z,11.70
2018-04-06T18:55:51.690Z,11.60
2018-04-06T18:58:19.248Z,11.40
2018-04-06T19:00:46.714Z,11.40
2018-04-06T19:03:14.206Z,11.20
2018-04-06T19:05:41.674Z,11.20
2018-04-06T19:08:09.934Z,11.00
2018-04-06T19:10:38.912Z,11.00
2018-04-06T19:13:06.386Z,11.00
2018-04-06T19:15:34.655Z,11.00
2018-04-06T19:18:02.163Z,10.90
2018-04-06T19:20:29.659Z,10.90
2018-04-06T19:22:57.271Z,10.90
2018-04-06T19:25:24.855Z,11.00
2018-04-06T19:27:58.095Z,10.80
2018-04-06T19:30:26.234Z,10.80
2018-04-06T19:32:53.735Z,10.70
2018-04-06T19:35:21.986Z,10.60
2018-04-06T19:37:49.482Z,10.60
2018-04-06T19:40:16.962Z,10.60
2018-04-06T19:42:44.447Z,10.60
2018-04-06T19:45:11.918Z,10.50
2018-04-06T19:47:39.406Z,10.40
2018-04-06T19:50:06.878Z,10.40
2018-04-06T19:52:34.350Z,10.30
2018-04-06T19:55:01.960Z,10.20
2018-04-06T19:57:30.150Z,10.20
2018-04-06T19:59:57.886Z,10.20
2018-04-06T20:02:25.371Z,10.20
2018-04-06T20:04:52.857Z,10.20
2018-04-06T20:07:20.318Z,10.20
2018-04-06T20:09:48.574Z,10.10
2018-04-06T20:12:16.038Z,10.00
2018-04-06T20:14:43.503Z,10.10
2018-04-06T20:17:11.755Z,10.00
2018-04-06T20:19:39.218Z,10.00
2018-04-06T20:22:06.701Z,10.00
2018-04-06T20:24:34.977Z,9.90
2018-04-06T20:27:02.446Z,9.90
2018-04-06T20:29:29.914Z,9.90
2018-04-06T20:31:57.394Z,9.80
2018-04-06T20:34:24.854Z,9.70
2018-04-06T20:36:52.318Z,9.60
2018-04-06T20:39:19.796Z,9.60
2018-04-06T20:41:48.027Z,9.60
2018-04-06T20:44:15.501Z,9.60
2018-04-06T20:46:42.959Z,9.70
2018-04-06T20:49:10.606Z,9.70
2018-04-06T20:51:38.062Z,9.70
2018-04-06T20:54:05.544Z,9.80
2018-04-06T20:56:33.018Z,9.90
2018-04-06T20:59:01.252Z,9.90
2018-04-06T21:01:28.754Z,9.90
2018-04-06T21:03:57.000Z,9.80
2018-04-06T21:06:24.456Z,9.80
2018-04-06T21:08:51.964Z,9.70
2018-04-06T21:11:19.422Z,9.60
2018-04-06T21:13:46.977Z,9.50
2018-04-06T21:16:14.449Z,9.40
2018-04-06T21:18:41.911Z,9.40
2018-04-06T21:21:09.408Z,9.50
2018-04-06T21:23:36.871Z,9.50
2018-04-06T21:26:05.332Z,9.40
2018-04-06T21:28:32.800Z,9.40
2018-04-06T21:31:01.026Z,9.30
2018-04-06T21:33:28.507Z,9.30
2018-04-06T21:35:55.970Z,9.40
2018-04-06T21:38:23.446Z,9.30
2018-04-06T21:40:51.671Z,9.20
2018-04-06T21:43:19.157Z,9.20
2018-04-06T21:45:46.634Z,9.10
2018-04-06T21:48:15.602Z,9.10
2018-04-06T21:50:43.098Z,9.00
2018-04-06T21:53:11.330Z,9.20
2018-04-06T21:55:38.827Z,9.10
2018-04-06T21:58:07.057Z,9.20
2018-04-06T22:00:34.530Z,9.20
2018-04-06T22:03:02.006Z,9.20
2018-04-06T22:05:29.478Z,9.10
2018-04-06T22:07:57.318Z,9.10
2018-04-06T22:10:24.785Z,9.10
2018-04-06T22:12:53.014Z,9.00
2018-04-06T22:15:20.502Z,9.00
2018-04-06T22:17:48.731Z,8.90
2018-04-06T22:20:16.238Z,8.90
2018-04-06T22:22:44.466Z,8.80
2018-04-06T22:25:11.944Z,8.80
2018-04-06T22:27:39.443Z,8.80
2018-04-06T22:30:07.667Z,8.80
2018-04-06T22:32:35.145Z,8.80
2018-04-06T22:35:02.602Z,8.70
2018-04-06T22:37:30.065Z,8.60
2018-04-06T22:39:58.306Z,8.70
2018-04-06T22:42:25.767Z,8.70
2018-04-06T22:44:53.250Z,8.70
2018-04-06T22:47:21.474Z,8.60
2018-04-06T22:49:48.946Z,8.60
2018-04-06T22:52:16.431Z,8.50
2018-04-06T22:54:43.911Z,8.40
2018-04-06T22:57:11.389Z,8.30
2018-04-06T22:59:38.850Z,8.30
2018-04-06T23:02:06.309Z,8.20
2018-04-06T23:04:33.796Z,8.30
2018-04-06T23:07:01.266Z,8.20
2018-04-06T23:09:28.759Z,8.10
2018-04-06T23:11:56.218Z,8.10
2018-04-06T23:14:23.678Z,8.20
2018-04-06T23:16:51.154Z,8.10
2018-04-06T23:19:18.614Z,8.10
2018-04-06T23:21:46.110Z,8.00
2018-04-06T23:24:14.342Z,7.90
2018-04-06T23:26:41.802Z,7.90
2018-04-06T23:29:09.289Z,7.80
2018-04-06T23:31:36.751Z,7.80
2018-04-06T23:34:05.002Z,7.70
2018-04-06T23:36:32.466Z,7.70
2018-04-06T23:38:59.926Z,7.70
2018-04-06T23:41:27.407Z,7.70
2018-04-06T23:43:55.634Z,7.60
2018-04-06T23:46:23.421Z,7.60
2018-04-06T23:48:51.654Z,7.40
2018-04-06T23:51:19.114Z,7.40
2018-04-06T23:53:46.598Z,7.40
2018-04-06T23:56:14.068Z,7.30
2018-04-06T23:58:42.314Z,7.10
